Strona główna
METAR-TAF:

METAR-TAF

Lotnisko :

Miller Field

Valentine, Nebraska, Stany Zjednoczone

Szerokość geograficzna: 42-51-31N, Długość geograficzna: 100-33-05W, wysokość: 789 m

Aktualna obserwacja pogody

Raport powstał 10 minut temu, godzina 06:52 UTC
Wiatr 7 kt od zachodnio-północny zachód
Temperatura -1°C
Wilgotność 74%
Ciśnienie 1019 hPa
Widzialność: 16.1 km
bezchmurnie

METAR: KVTN 280652Z AUTO 29007KT 10SM CLR M01/M05 A3010 RMK AO2 SLP215 T10061050

czas: 01:02 (07:02 UTC)

Prognoza

Raport powstał 1 godzina i 42 minut temu, godzina 05:20 UTC
Prognoza ważna od 28 godzina 06 UTC do 29 godzina 06 UTC
Wiatr 8 kt od zachód
Widzialność: 10 km
Rozproszone chmury na wysokości 20000 ft
Od 28 godzina 1600 UTC
Wiatr 10 kt od zachodnio-północny zachód
Widzialność: 10 km
bezchmurnie
Od 29 godzina 0000 UTC
Wiatr 5 kt od zachód
Widzialność: 10 km
bezchmurnie

TAF: KVTN 280520Z 2806/2906 28008KT P6SM SCT200 FM281600 30010KT P6SM SKC FM290000 28005KT P6SM SKC

Obserwacja i prognoza pogody dla ponad 4000 lotnisk (raport METAR i TAF).

Dostępne stacje oznaczono żółtymi i czerwonymi punktami na mapie.

Najedź kursorem aby zobaczyć nazwę stacji.

Kliknij aby zobaczyć obserwacje i prognozy pogody.

Aby zmienić mapę: kliknij na zielony przycisk z czarnym krzyżykiem, aby powiększyć; na zielony przycisk z myślnikiem, aby pomniejszyć; na zielone strzałki, aby przejść do map sąsiednich.


METAR-TAF: